Terminal Aerodrome Forecast
Issued by NWS

Home | Current Version | Previous Version | Graphics & Text | Print | Product List | Glossary On
Versions: 1 2 3 4 5 6 7 8 9 10 11 12 13
367
FTUS43 KMPX 131120
TAFRWF
TAF
KRWF 131120Z 1312/1412 32008KT P6SM SKC
     FM131800 VRB04KT P6SM SKC
     FM140000 18004KT P6SM SKC
     FM140700 16008KT P6SM BKN100
     FM140900 16009KT P6SM OVC050=

USA.gov is the U.S. government's official web portal to all federal, state and local government web resources and services.